Time;durP1;ratioP1;P1;durP2;ratioP2;P2;SDS_P1;SDS_P2;PMS_P1;PMS_P2;Temp;Humidity;BMP_temperature;BMP_pressure;BME280_temperature;BME280_humidity;BME280_pressure;Samples;Min_cycle;Max_cycle;Signal;HPM_P1;HPM_P2
2023/07/10 00:01:47;;;;;;;9.93;7.38;;;;;;;;;;5017688;28;20479;-79
2023/07/10 00:04:16;;;;;;;12.70;7.25;;;;;;;;;;5023373;28;20045;-78
2023/07/10 00:06:44;;;;;;;10.02;7.43;;;;;;;;;;5019758;28;20099;-78
2023/07/10 00:09:12;;;;;;;9.27;6.45;;;;;;;;;;5019830;28;20042;-79
2023/07/10 00:11:40;;;;;;;10.15;7.90;;;;;;;;;;5019470;28;20507;-80
2023/07/10 00:14:15;;;;;;;12.55;6.90;;;;;;;;;;5025590;28;20037;-79
2023/07/10 00:16:42;;;;;;;10.65;6.82;;;;;;;;;;5015189;28;20038;-80
2023/07/10 00:19:14;;;;;;;12.32;7.00;;;;;;;;;;5019878;28;20046;-79
2023/07/10 00:21:41;;;;;;;11.25;6.90;;;;;;;;;;5023949;28;20042;-80
2023/07/10 00:24:09;;;;;;;11.13;6.57;;;;;;;;;;5028863;28;20091;-80
2023/07/10 00:26:37;;;;;;;11.32;7.32;;;;;;;;;;5016828;28;20030;-79
2023/07/10 00:29:14;;;;;;;10.57;6.47;;;;;;;;;;5023665;28;20049;-79
2023/07/10 00:31:42;;;;;;;12.07;6.43;;;;;;;;;;5026161;28;20047;-79
2023/07/10 00:34:16;;;;;;;10.98;6.88;;;;;;;;;;5028948;28;20042;-79
2023/07/10 00:36:47;;;;;;;14.63;7.43;;;;;;;;;;5012772;28;20104;-80
2023/07/10 00:39:14;;;;;;;10.95;5.80;;;;;;;;;;5016574;28;20438;-79
2023/07/10 00:41:43;;;;;;;8.82;6.07;;;;;;;;;;5028556;28;20057;-79
2023/07/10 00:44:11;;;;;;;9.75;5.95;;;;;;;;;;5026759;28;20535;-79
2023/07/10 00:46:38;;;;;;;12.05;6.43;;;;;;;;;;5025952;28;20495;-79
2023/07/10 00:49:05;;;;;;;8.43;5.57;;;;;;;;;;5017195;28;20443;-79
2023/07/10 00:51:42;;;;;;;11.40;6.10;;;;;;;;;;5022488;28;20060;-78
2023/07/10 00:54:18;;;;;;;10.07;5.50;;;;;;;;;;5018650;28;20092;-79
2023/07/10 00:56:47;;;;;;;10.77;6.15;;;;;;;;;;5017056;28;20053;-79
2023/07/10 00:59:22;;;;;;;10.07;5.65;;;;;;;;;;5025155;28;20045;-79
2023/07/10 01:02:08;;;;;;;9.00;5.22;;;;;;;;;;5015830;28;20057;-79
2023/07/10 01:04:39;;;;;;;10.43;5.78;;;;;;;;;;5016172;28;20033;-79
2023/07/10 01:07:08;;;;;;;10.18;5.75;;;;;;;;;;5025834;28;20037;-78
2023/07/10 01:09:36;;;;;;;7.13;5.40;;;;;;;;;;5017321;28;20037;-79
2023/07/10 01:12:05;;;;;;;9.07;5.68;;;;;;;;;;5019249;28;20046;-79
2023/07/10 01:14:35;;;;;;;7.68;5.50;;;;;;;;;;5014275;28;20034;-79
2023/07/10 01:17:04;;;;;;;11.00;5.80;;;;;;;;;;5016684;28;20049;-79
2023/07/10 01:19:33;;;;;;;11.18;5.65;;;;;;;;;;5015921;28;20054;-79
2023/07/10 01:22:00;;;;;;;8.57;5.40;;;;;;;;;;5016857;28;20042;-78
2023/07/10 01:24:29;;;;;;;8.63;5.60;;;;;;;;;;5017173;28;20392;-79
2023/07/10 01:26:57;;;;;;;9.18;5.93;;;;;;;;;;5013311;28;20052;-79
2023/07/10 01:29:27;;;;;;;6.63;5.53;;;;;;;;;;5017988;28;20041;-79
2023/07/10 01:31:56;;;;;;;9.27;6.18;;;;;;;;;;5021019;28;20048;-78
2023/07/10 01:34:30;;;;;;;8.32;5.82;;;;;;;;;;5021467;28;20053;-78
2023/07/10 01:36:58;;;;;;;10.88;6.13;;;;;;;;;;5024347;28;20137;-78
2023/07/10 01:39:33;;;;;;;7.90;5.78;;;;;;;;;;5025344;28;20484;-79
2023/07/10 01:42:02;;;;;;;9.85;5.60;;;;;;;;;;5012528;28;20488;-79
2023/07/10 01:44:30;;;;;;;8.90;5.90;;;;;;;;;;5027779;28;20048;-78
2023/07/10 01:46:58;;;;;;;7.68;5.43;;;;;;;;;;5020051;28;20034;-79
2023/07/10 01:49:32;;;;;;;10.20;6.25;;;;;;;;;;5015466;28;20042;-79
2023/07/10 01:52:01;;;;;;;7.53;5.65;;;;;;;;;;5015474;28;21934;-78
2023/07/10 01:54:31;;;;;;;8.68;5.85;;;;;;;;;;5037151;28;20411;-79
2023/07/10 01:56:58;;;;;;;10.40;6.15;;;;;;;;;;5018809;28;20042;-78
2023/07/10 01:59:26;;;;;;;8.60;5.70;;;;;;;;;;5021557;28;20507;-79
2023/07/10 02:01:54;;;;;;;7.13;5.68;;;;;;;;;;5023332;28;20037;-78
2023/07/10 02:04:22;;;;;;;10.18;6.03;;;;;;;;;;5014774;28;20133;-79
2023/07/10 02:06:50;;;;;;;7.13;5.82;;;;;;;;;;5018683;28;20041;-79
2023/07/10 02:09:17;;;;;;;8.85;5.90;;;;;;;;;;5019729;28;20051;-78
2023/07/10 02:11:45;;;;;;;9.25;5.85;;;;;;;;;;5019135;28;20034;-78
2023/07/10 02:14:12;;;;;;;9.90;6.45;;;;;;;;;;5022744;28;20491;-78
2023/07/10 02:16:40;;;;;;;11.45;6.25;;;;;;;;;;4997818;28;20038;-78
2023/07/10 02:19:08;;;;;;;7.47;5.93;;;;;;;;;;5020680;28;20057;-78
2023/07/10 02:21:35;;;;;;;8.68;5.88;;;;;;;;;;5027460;28;20041;-78
2023/07/10 02:24:03;;;;;;;8.82;5.75;;;;;;;;;;5021430;28;20109;-78
2023/07/10 02:26:30;;;;;;;13.20;6.25;;;;;;;;;;5026152;28;20045;-79
2023/07/10 02:29:00;;;;;;;8.88;6.53;;;;;;;;;;5017844;28;20045;-78
2023/07/10 02:31:28;;;;;;;9.63;5.90;;;;;;;;;;5014765;28;20041;-79
2023/07/10 02:33:57;;;;;;;11.85;6.18;;;;;;;;;;5021165;28;20100;-79
2023/07/10 02:36:26;;;;;;;7.53;6.18;;;;;;;;;;5019286;28;20487;-78
2023/07/10 02:38:54;;;;;;;9.40;7.20;;;;;;;;;;5012756;28;20055;-78
2023/07/10 02:41:21;;;;;;;12.45;6.88;;;;;;;;;;5012583;28;20050;-78
2023/07/10 02:43:48;;;;;;;11.18;6.65;;;;;;;;;;5019245;28;20037;-78
2023/07/10 02:46:18;;;;;;;11.55;7.10;;;;;;;;;;5027703;28;20403;-79
2023/07/10 02:48:45;;;;;;;13.90;7.18;;;;;;;;;;5018917;28;20510;-78
2023/07/10 02:51:13;;;;;;;15.05;7.63;;;;;;;;;;5015917;28;20049;-78
2023/07/10 02:53:41;;;;;;;13.85;7.47;;;;;;;;;;5028215;28;20404;-79
2023/07/10 02:56:08;;;;;;;13.80;7.35;;;;;;;;;;5018324;28;20129;-78
2023/07/10 02:58:36;;;;;;;13.73;7.43;;;;;;;;;;5020396;28;20112;-79
2023/07/10 03:01:04;;;;;;;14.93;7.30;;;;;;;;;;5017826;28;20137;-78
2023/07/10 03:03:31;;;;;;;13.00;7.60;;;;;;;;;;5029862;28;20044;-78
2023/07/10 03:06:00;;;;;;;14.98;7.38;;;;;;;;;;5024391;28;20052;-78
2023/07/10 03:08:29;;;;;;;17.17;7.50;;;;;;;;;;5022028;28;20057;-78
2023/07/10 03:11:03;;;;;;;14.57;7.20;;;;;;;;;;5021154;28;20399;-78
2023/07/10 03:13:31;;;;;;;14.50;7.38;;;;;;;;;;5020556;28;20404;-78
2023/07/10 03:16:04;;;;;;;19.17;7.28;;;;;;;;;;5026818;28;20106;-78
2023/07/10 03:18:36;;;;;;;10.65;6.82;;;;;;;;;;5021121;28;20758;-78
2023/07/10 03:21:05;;;;;;;13.52;7.32;;;;;;;;;;5018760;28;20038;-78
2023/07/10 03:23:33;;;;;;;14.30;7.25;;;;;;;;;;5016185;28;20052;-78
2023/07/10 03:26:01;;;;;;;10.93;7.28;;;;;;;;;;5018434;28;20369;-78
2023/07/10 03:28:29;;;;;;;16.30;7.05;;;;;;;;;;5019662;28;20493;-78
2023/07/10 03:30:59;;;;;;;9.80;6.50;;;;;;;;;;5029605;28;20046;-78
2023/07/10 03:33:26;;;;;;;8.13;6.43;;;;;;;;;;5019567;28;20120;-78
2023/07/10 03:36:01;;;;;;;13.38;7.10;;;;;;;;;;5016866;28;20045;-77
2023/07/10 03:38:29;;;;;;;10.60;6.97;;;;;;;;;;5019734;28;20157;-78
2023/07/10 03:40:57;;;;;;;11.85;6.97;;;;;;;;;;5019593;28;20041;-78
2023/07/10 03:43:26;;;;;;;16.58;7.53;;;;;;;;;;5025170;28;20050;-77
2023/07/10 03:45:54;;;;;;;10.07;6.68;;;;;;;;;;5025080;28;20038;-77
2023/07/10 03:48:21;;;;;;;9.27;6.72;;;;;;;;;;5019052;28;20046;-77
2023/07/10 03:50:49;;;;;;;15.32;7.28;;;;;;;;;;5024648;28;20049;-76
2023/07/10 03:53:16;;;;;;;12.07;7.40;;;;;;;;;;5017600;28;20041;-76
2023/07/10 03:55:48;;;;;;;10.18;7.13;;;;;;;;;;5019869;28;20053;-76
2023/07/10 03:58:20;;;;;;;10.23;7.15;;;;;;;;;;5022620;28;20538;-76
2023/07/10 04:00:48;;;;;;;10.18;7.38;;;;;;;;;;5021551;28;20054;-76
2023/07/10 04:03:15;;;;;;;10.88;7.60;;;;;;;;;;5026682;28;20125;-76
2023/07/10 04:05:48;;;;;;;12.23;7.95;;;;;;;;;;5017966;28;20045;-73
2023/07/10 04:08:15;;;;;;;10.40;7.25;;;;;;;;;;5020814;28;20084;-73
2023/07/10 04:10:48;;;;;;;13.20;6.95;;;;;;;;;;5026670;28;20128;-73
2023/07/10 04:13:16;;;;;;;12.05;7.70;;;;;;;;;;5022046;28;20061;-73
2023/07/10 04:15:43;;;;;;;9.63;6.75;;;;;;;;;;5021410;28;20052;-73
2023/07/10 04:18:11;;;;;;;9.43;7.90;;;;;;;;;;5019643;28;20125;-77
2023/07/10 04:20:38;;;;;;;11.55;7.55;;;;;;;;;;5018425;28;20037;-76
2023/07/10 04:23:05;;;;;;;10.75;7.22;;;;;;;;;;5023156;28;20061;-78
2023/07/10 04:25:33;;;;;;;9.50;7.57;;;;;;;;;;5017934;28;20034;-77
2023/07/10 04:28:00;;;;;;;9.15;7.07;;;;;;;;;;5021572;28;20038;-77
2023/07/10 04:30:28;;;;;;;8.25;7.05;;;;;;;;;;5019880;28;20061;-77
2023/07/10 04:32:55;;;;;;;9.38;6.97;;;;;;;;;;5027147;28;20053;-77
2023/07/10 04:35:23;;;;;;;8.43;6.65;;;;;;;;;;5024208;28;20060;-77
2023/07/10 04:37:50;;;;;;;8.93;7.53;;;;;;;;;;5020013;28;20116;-76
2023/07/10 04:40:18;;;;;;;9.32;7.00;;;;;;;;;;5020465;28;20059;-78
2023/07/10 04:42:45;;;;;;;7.93;6.32;;;;;;;;;;5018771;28;20041;-78
2023/07/10 04:45:13;;;;;;;10.10;6.68;;;;;;;;;;5019171;28;20100;-78
2023/07/10 04:47:41;;;;;;;8.55;6.38;;;;;;;;;;5018081;28;20041;-78
2023/07/10 04:50:09;;;;;;;8.13;6.20;;;;;;;;;;5018065;28;20053;-78
2023/07/10 04:52:37;;;;;;;13.70;6.18;;;;;;;;;;5026004;28;20033;-78
2023/07/10 04:55:04;;;;;;;11.60;6.63;;;;;;;;;;5022170;28;20049;-77
2023/07/10 04:57:32;;;;;;;8.20;6.20;;;;;;;;;;5013975;28;20037;-72
2023/07/10 04:59:59;;;;;;;8.30;5.90;;;;;;;;;;5027886;28;20041;-72
2023/07/10 05:02:27;;;;;;;11.15;6.07;;;;;;;;;;5033189;28;20053;-72
2023/07/10 05:04:55;;;;;;;8.98;5.63;;;;;;;;;;5033075;28;20112;-72
2023/07/10 05:07:22;;;;;;;10.02;6.20;;;;;;;;;;5032753;28;20041;-72
2023/07/10 05:09:50;;;;;;;11.93;6.95;;;;;;;;;;5033035;28;20449;-72
2023/07/10 05:12:17;;;;;;;9.52;6.60;;;;;;;;;;5033088;28;20041;-72
2023/07/10 05:14:45;;;;;;;13.70;6.90;;;;;;;;;;5032968;28;20095;-72
2023/07/10 05:17:12;;;;;;;7.03;5.80;;;;;;;;;;5032982;28;20037;-72
2023/07/10 05:19:40;;;;;;;9.57;5.85;;;;;;;;;;5033110;28;20436;-72
2023/07/10 05:22:07;;;;;;;27.75;6.15;;;;;;;;;;5033007;28;20095;-72
2023/07/10 05:24:35;;;;;;;10.35;5.35;;;;;;;;;;5032708;28;20037;-72
2023/07/10 05:27:02;;;;;;;8.68;5.53;;;;;;;;;;5032865;28;20053;-71
2023/07/10 05:29:30;;;;;;;11.70;5.30;;;;;;;;;;5032641;28;20136;-72
2023/07/10 05:31:57;;;;;;;8.48;5.38;;;;;;;;;;5033023;28;20096;-71
2023/07/10 05:34:26;;;;;;;8.35;5.47;;;;;;;;;;5032999;28;20046;-72
2023/07/10 05:36:54;;;;;;;9.73;5.40;;;;;;;;;;5032565;28;20042;-72
2023/07/10 05:39:21;;;;;;;10.77;6.00;;;;;;;;;;5032702;28;20483;-72
2023/07/10 05:41:49;;;;;;;8.35;5.90;;;;;;;;;;5032594;28;20045;-72
2023/07/10 05:44:16;;;;;;;9.07;5.20;;;;;;;;;;5032487;28;20148;-71
2023/07/10 05:46:44;;;;;;;7.25;5.40;;;;;;;;;;5032467;28;20491;-72
2023/07/10 05:49:11;;;;;;;10.00;5.97;;;;;;;;;;5032465;28;20049;-72
2023/07/10 05:51:39;;;;;;;9.48;6.00;;;;;;;;;;5032369;28;20288;-72
2023/07/10 05:54:06;;;;;;;7.90;5.82;;;;;;;;;;5032421;28;20046;-72
2023/07/10 05:56:34;;;;;;;6.93;5.03;;;;;;;;;;5031188;28;20402;-72
2023/07/10 05:59:02;;;;;;;7.78;5.55;;;;;;;;;;5032493;28;20045;-72
2023/07/10 06:01:29;;;;;;;8.05;5.22;;;;;;;;;;5032429;28;20048;-72
2023/07/10 06:03:57;;;;;;;9.77;5.43;;;;;;;;;;5032428;28;20084;-72
2023/07/10 06:06:24;;;;;;;7.70;5.40;;;;;;;;;;5031158;28;20069;-72
2023/07/10 06:08:52;;;;;;;7.75;5.53;;;;;;;;;;5032255;28;20045;-72
2023/07/10 06:11:19;;;;;;;6.22;5.47;;;;;;;;;;5032103;28;20064;-72
2023/07/10 06:13:47;;;;;;;6.78;5.15;;;;;;;;;;5032050;28;20052;-72
2023/07/10 06:16:14;;;;;;;8.45;5.60;;;;;;;;;;5032133;28;20041;-72
2023/07/10 06:18:42;;;;;;;5.95;5.35;;;;;;;;;;5036009;28;20140;-72
2023/07/10 06:21:11;;;;;;;7.82;5.80;;;;;;;;;;5035025;28;20116;-72
2023/07/10 06:23:38;;;;;;;6.93;5.28;;;;;;;;;;5036153;28;20037;-72
2023/07/10 06:26:06;;;;;;;6.60;4.88;;;;;;;;;;5036037;28;20041;-71
2023/07/10 06:28:34;;;;;;;6.65;4.60;;;;;;;;;;5035964;28;20121;-73
2023/07/10 06:31:04;;;;;;;5.35;4.38;;;;;;;;;;5035654;28;20517;-72
2023/07/10 06:33:32;;;;;;;5.97;4.75;;;;;;;;;;5036231;28;20038;-72
2023/07/10 06:36:00;;;;;;;6.93;4.68;;;;;;;;;;5034604;28;20049;-72
2023/07/10 06:38:28;;;;;;;9.02;4.30;;;;;;;;;;5035715;28;20132;-72
2023/07/10 06:40:55;;;;;;;8.43;4.95;;;;;;;;;;5035651;28;20103;-72
2023/07/10 06:43:23;;;;;;;8.65;4.65;;;;;;;;;;5035669;28;20038;-71
2023/07/10 06:45:51;;;;;;;5.65;4.80;;;;;;;;;;5035707;28;20095;-74
2023/07/10 06:48:19;;;;;;;7.25;4.28;;;;;;;;;;5035676;28;20059;-72
2023/07/10 06:50:49;;;;;;;6.22;4.20;;;;;;;;;;5034215;28;20056;-73
2023/07/10 06:53:16;;;;;;;6.68;4.53;;;;;;;;;;5035639;28;20041;-73
2023/07/10 06:55:58;;;;;;;8.38;4.00;;;;;;;;;;5035712;28;20342;-72
2023/07/10 06:58:26;;;;;;;7.07;4.55;;;;;;;;;;5035548;28;20691;-73
2023/07/10 07:00:53;;;;;;;6.72;4.65;;;;;;;;;;5035449;28;20049;-73
2023/07/10 07:03:21;;;;;;;5.60;4.35;;;;;;;;;;5035909;28;20033;-73
2023/07/10 07:05:49;;;;;;;8.45;4.57;;;;;;;;;;5035400;28;20045;-74
2023/07/10 07:08:19;;;;;;;5.90;4.50;;;;;;;;;;5035304;28;20084;-73
2023/07/10 07:10:47;;;;;;;5.93;4.63;;;;;;;;;;5035179;28;20049;-72
2023/07/10 07:13:15;;;;;;;7.20;4.90;;;;;;;;;;5033864;28;20092;-72
2023/07/10 07:15:48;;;;;;;7.35;4.50;;;;;;;;;;5035208;28;20068;-72
2023/07/10 07:18:16;;;;;;;10.45;4.85;;;;;;;;;;5035203;28;20045;-72
2023/07/10 07:20:44;;;;;;;6.13;4.90;;;;;;;;;;5035349;28;20049;-72
2023/07/10 07:23:11;;;;;;;7.43;4.90;;;;;;;;;;5035063;28;20055;-72
2023/07/10 07:25:40;;;;;;;7.50;4.75;;;;;;;;;;5035045;28;20041;-72
2023/07/10 07:28:07;;;;;;;7.65;4.60;;;;;;;;;;5034652;28;20088;-72
2023/07/10 07:30:35;;;;;;;13.27;5.45;;;;;;;;;;5034341;28;20037;-72
2023/07/10 07:33:03;;;;;;;6.50;4.80;;;;;;;;;;5034640;28;20048;-73
2023/07/10 07:35:31;;;;;;;7.28;5.50;;;;;;;;;;5034732;28;20042;-71
2023/07/10 07:37:59;;;;;;;6.95;4.50;;;;;;;;;;5034545;28;20053;-71
2023/07/10 07:40:26;;;;;;;6.80;4.70;;;;;;;;;;5034833;28;20038;-71
2023/07/10 07:42:54;;;;;;;8.43;4.80;;;;;;;;;;5034951;28;20073;-71
2023/07/10 07:45:21;;;;;;;5.97;4.63;;;;;;;;;;5034667;28;20124;-72
2023/07/10 07:47:49;;;;;;;6.57;4.68;;;;;;;;;;5034567;28;20046;-72
2023/07/10 07:50:17;;;;;;;8.10;4.28;;;;;;;;;;5034381;28;20052;-72
2023/07/10 07:52:45;;;;;;;6.07;4.13;;;;;;;;;;5034315;28;20095;-73
2023/07/10 07:55:12;;;;;;;7.30;4.35;;;;;;;;;;5034455;28;20036;-72
2023/07/10 07:57:40;;;;;;;6.65;3.95;;;;;;;;;;5034367;28;20045;-73
2023/07/10 08:00:08;;;;;;;7.47;4.10;;;;;;;;;;5034244;28;20036;-72
2023/07/10 08:02:38;;;;;;;6.68;4.03;;;;;;;;;;5033430;28;20096;-73
2023/07/10 08:05:06;;;;;;;4.78;3.92;;;;;;;;;;5034299;28;20376;-73
2023/07/10 08:07:46;;;;;;;6.40;3.45;;;;;;;;;;5034218;28;20050;-73
2023/07/10 08:10:13;;;;;;;5.47;3.58;;;;;;;;;;5034125;28;20491;-73
2023/07/10 08:12:41;;;;;;;4.10;3.10;;;;;;;;;;5034184;28;20454;-70
2023/07/10 08:15:09;;;;;;;5.47;2.97;;;;;;;;;;5034007;28;20030;-71
2023/07/10 08:17:37;;;;;;;8.77;3.10;;;;;;;;;;5032855;28;20470;-71
2023/07/10 08:20:07;;;;;;;10.57;2.95;;;;;;;;;;5033944;28;20495;-70
2023/07/10 08:22:35;;;;;;;4.97;2.95;;;;;;;;;;5033970;28;20041;-71
2023/07/10 08:25:03;;;;;;;3.75;3.00;;;;;;;;;;5034073;28;20038;-70
2023/07/10 08:27:30;;;;;;;4.32;2.90;;;;;;;;;;5033725;28;20068;-72
2023/07/10 08:29:58;;;;;;;6.25;2.88;;;;;;;;;;5034163;28;20392;-72
2023/07/10 08:32:25;;;;;;;9.90;3.50;;;;;;;;;;5033775;28;20037;-73
2023/07/10 08:34:53;;;;;;;3.58;3.10;;;;;;;;;;5033795;28;20034;-73
2023/07/10 08:37:20;;;;;;;5.90;3.42;;;;;;;;;;5033439;28;20049;-71
2023/07/10 08:39:49;;;;;;;4.40;2.97;;;;;;;;;;5033477;28;20041;-72
2023/07/10 08:42:21;;;;;;;6.63;2.80;;;;;;;;;;5033063;28;20033;-73
2023/07/10 08:44:51;;;;;;;6.15;3.30;;;;;;;;;;5033686;28;20045;-72
2023/07/10 08:47:21;;;;;;;5.93;3.10;;;;;;;;;;5033529;28;20044;-70
2023/07/10 08:49:54;;;;;;;5.93;3.50;;;;;;;;;;5033735;28;20061;-70
2023/07/10 08:52:48;;;;;;;7.35;2.92;;;;;;;;;;5033698;28;20487;-70
2023/07/10 08:55:19;;;;;;;3.42;3.00;;;;;;;;;;5032397;28;20527;-71
2023/07/10 08:57:51;;;;;;;5.78;2.88;;;;;;;;;;5032158;28;20034;-72
2023/07/10 09:00:20;;;;;;;3.93;2.77;;;;;;;;;;5033286;28;20064;-72
2023/07/10 09:03:10;;;;;;;4.13;3.08;;;;;;;;;;5033109;28;20121;-71
2023/07/10 09:05:38;;;;;;;3.55;2.42;;;;;;;;;;5033231;28;20377;-70
2023/07/10 09:08:10;;;;;;;6.70;2.83;;;;;;;;;;5031752;28;20041;-71
2023/07/10 09:10:41;;;;;;;4.00;2.60;;;;;;;;;;5032938;28;21908;-71
2023/07/10 09:13:12;;;;;;;6.47;2.95;;;;;;;;;;5033016;28;20544;-71
2023/07/10 09:15:43;;;;;;;3.50;3.10;;;;;;;;;;5032987;28;20116;-71
2023/07/10 09:18:19;;;;;;;4.05;3.00;;;;;;;;;;5032907;28;20041;-71
2023/07/10 09:20:48;;;;;;;4.00;3.20;;;;;;;;;;5033043;28;20201;-70
2023/07/10 09:23:22;;;;;;;7.47;3.22;;;;;;;;;;5032707;28;20544;-71
2023/07/10 09:25:54;;;;;;;6.53;3.50;;;;;;;;;;5032764;28;20049;-71
2023/07/10 09:28:23;;;;;;;6.05;2.90;;;;;;;;;;5032662;28;20076;-72
2023/07/10 09:31:05;;;;;;;6.38;3.70;;;;;;;;;;5032644;28;20038;-71
2023/07/10 09:33:51;;;;;;;4.78;2.88;;;;;;;;;;5032717;28;20070;-71
2023/07/10 09:36:19;;;;;;;6.68;3.20;;;;;;;;;;5032728;28;20056;-71
2023/07/10 09:38:48;;;;;;;5.20;3.40;;;;;;;;;;5032502;28;20046;-71
2023/07/10 09:41:23;;;;;;;4.72;3.47;;;;;;;;;;5032615;28;20507;-71
2023/07/10 09:43:59;;;;;;;3.70;2.75;;;;;;;;;;5032782;28;20111;-72
2023/07/10 09:46:28;;;;;;;7.70;3.30;;;;;;;;;;5032443;28;20046;-72
2023/07/10 09:48:57;;;;;;;4.80;3.30;;;;;;;;;;5032383;28;20574;-71
2023/07/10 09:51:25;;;;;;;6.43;3.10;;;;;;;;;;5032182;28;20526;-72
2023/07/10 09:53:54;;;;;;;8.68;3.53;;;;;;;;;;5032722;28;20040;-72
2023/07/10 09:56:26;;;;;;;5.00;2.83;;;;;;;;;;5032507;28;20053;-72
2023/07/10 09:58:57;;;;;;;5.10;3.17;;;;;;;;;;5032446;28;20069;-71
2023/07/10 10:01:29;;;;;;;10.15;3.72;;;;;;;;;;5032262;28;20140;-72
2023/07/10 10:03:57;;;;;;;5.95;3.10;;;;;;;;;;5032680;28;20411;-72
2023/07/10 10:06:27;;;;;;;5.05;3.20;;;;;;;;;;5032384;28;20041;-72
2023/07/10 10:08:55;;;;;;;5.30;3.33;;;;;;;;;;5032326;28;20045;-72
2023/07/10 10:11:31;;;;;;;6.85;3.83;;;;;;;;;;5032117;28;20045;-73
2023/07/10 10:14:01;;;;;;;4.32;3.10;;;;;;;;;;5032430;28;20041;-73
2023/07/10 10:16:31;;;;;;;5.20;2.92;;;;;;;;;;5032235;28;20046;-73
2023/07/10 10:19:06;;;;;;;4.70;3.03;;;;;;;;;;5032282;28;20051;-72
2023/07/10 10:21:35;;;;;;;6.25;3.47;;;;;;;;;;5032172;28;20045;-72
2023/07/10 10:24:07;;;;;;;5.13;3.00;;;;;;;;;;5032193;28;20041;-72
2023/07/10 10:26:51;;;;;;;4.35;3.00;;;;;;;;;;5032242;28;20052;-72
2023/07/10 10:29:37;;;;;;;5.40;3.20;;;;;;;;;;5032372;28;20049;-72
2023/07/10 10:32:14;;;;;;;7.05;3.30;;;;;;;;;;5032073;28;20065;-71
2023/07/10 10:34:42;;;;;;;5.53;3.40;;;;;;;;;;5032114;28;20083;-72
2023/07/10 10:37:15;;;;;;;5.28;3.35;;;;;;;;;;5031864;28;20053;-72
2023/07/10 10:39:52;;;;;;;3.42;3.00;;;;;;;;;;5031910;28;20580;-73
2023/07/10 10:42:19;;;;;;;5.10;3.17;;;;;;;;;;5032066;28;20095;-73
2023/07/10 10:45:10;;;;;;;5.70;3.40;;;;;;;;;;5031981;28;20586;-72
2023/07/10 10:47:40;;;;;;;9.07;3.10;;;;;;;;;;5021780;28;20099;-71
2023/07/10 10:50:19;;;;;;;5.93;3.20;;;;;;;;;;5031833;28;20077;-72
2023/07/10 10:53:01;;;;;;;7.43;3.28;;;;;;;;;;5031779;28;20096;-72
2023/07/10 10:55:31;;;;;;;5.43;3.22;;;;;;;;;;5031861;28;20037;-72
2023/07/10 10:57:59;;;;;;;6.50;3.45;;;;;;;;;;5031834;28;20041;-72
2023/07/10 11:00:38;;;;;;;6.85;3.15;;;;;;;;;;5031736;28;20033;-72
2023/07/10 11:03:18;;;;;;;5.75;3.17;;;;;;;;;;5032023;28;20038;-73
2023/07/10 11:05:48;;;;;;;3.90;3.20;;;;;;;;;;5035518;28;20045;-73
2023/07/10 11:08:19;;;;;;;8.73;3.42;;;;;;;;;;5035314;28;20048;-72
2023/07/10 11:10:47;;;;;;;5.68;3.28;;;;;;;;;;5035322;28;20069;-73
2023/07/10 11:13:19;;;;;;;6.68;3.33;;;;;;;;;;5035284;28;20049;-72
2023/07/10 11:15:46;;;;;;;6.22;3.42;;;;;;;;;;5035348;28;20100;-73
2023/07/10 11:18:15;;;;;;;5.30;3.40;;;;;;;;;;5035160;28;20049;-72
2023/07/10 11:20:43;;;;;;;7.20;3.22;;;;;;;;;;5035165;28;20112;-73
2023/07/10 11:23:29;;;;;;;7.22;3.40;;;;;;;;;;5035134;28;20539;-72
2023/07/10 11:26:15;;;;;;;6.55;3.45;;;;;;;;;;5035018;28;20083;-72
2023/07/10 11:29:03;;;;;;;3.47;3.10;;;;;;;;;;5033813;28;20060;-72
2023/07/10 11:31:37;;;;;;;6.43;3.50;;;;;;;;;;5031581;28;20415;-72
2023/07/10 11:34:08;;;;;;;5.32;3.42;;;;;;;;;;5034827;28;20514;-72
2023/07/10 11:36:39;;;;;;;9.15;3.05;;;;;;;;;;5034725;28;20076;-71
2023/07/10 11:39:09;;;;;;;5.60;3.40;;;;;;;;;;5034816;28;20075;-72
2023/07/10 11:41:59;;;;;;;5.55;3.30;;;;;;;;;;5034593;28;20060;-72
2023/07/10 11:44:32;;;;;;;5.20;2.88;;;;;;;;;;5034681;28;20045;-72
2023/07/10 11:47:07;;;;;;;5.50;3.08;;;;;;;;;;5034668;28;20057;-72
2023/07/10 11:49:41;;;;;;;7.43;3.30;;;;;;;;;;5034559;28;20514;-72
2023/07/10 11:52:08;;;;;;;3.30;3.00;;;;;;;;;;5034486;28;20042;-72
2023/07/10 11:54:39;;;;;;;4.75;3.75;;;;;;;;;;5034385;28;20045;-72
2023/07/10 11:57:09;;;;;;;8.60;4.22;;;;;;;;;;5034368;28;20092;-72
2023/07/10 11:59:39;;;;;;;6.22;3.83;;;;;;;;;;5034670;28;20132;-72
2023/07/10 12:02:20;;;;;;;5.47;3.30;;;;;;;;;;5034244;28;20044;-73
2023/07/10 12:04:47;;;;;;;4.93;3.75;;;;;;;;;;5034433;28;20057;-72
2023/07/10 12:07:15;;;;;;;4.80;3.00;;;;;;;;;;5034074;28;20518;-72
2023/07/10 12:09:43;;;;;;;4.63;3.50;;;;;;;;;;5033945;28;20033;-72
2023/07/10 12:12:11;;;;;;;6.43;3.30;;;;;;;;;;5033833;28;20048;-72
2023/07/10 12:14:39;;;;;;;6.72;3.35;;;;;;;;;;5032991;28;20373;-72
2023/07/10 12:17:13;;;;;;;5.82;3.10;;;;;;;;;;5032703;28;20359;-72
2023/07/10 12:19:45;;;;;;;6.22;3.42;;;;;;;;;;5033903;28;20064;-72
2023/07/10 12:22:23;;;;;;;3.28;2.95;;;;;;;;;;5033924;28;20427;-73
2023/07/10 12:24:54;;;;;;;4.85;2.90;;;;;;;;;;5015276;28;20042;-74
2023/07/10 12:27:22;;;;;;;6.40;3.20;;;;;;;;;;5014103;28;20131;-73
2023/07/10 12:29:54;;;;;;;10.90;3.60;;;;;;;;;;5020843;28;20510;-71
2023/07/10 12:32:23;;;;;;;10.13;3.50;;;;;;;;;;5018122;28;20057;-73
2023/07/10 12:34:51;;;;;;;7.10;3.78;;;;;;;;;;5018150;28;20476;-71
2023/07/10 12:37:18;;;;;;;7.05;3.70;;;;;;;;;;5023430;28;20049;-70
2023/07/10 12:39:49;;;;;;;6.13;3.70;;;;;;;;;;5014834;28;20120;-74
2023/07/10 12:42:31;;;;;;;4.85;3.53;;;;;;;;;;5015725;28;20037;-72
2023/07/10 12:45:04;;;;;;;6.28;3.88;;;;;;;;;;5023355;28;20553;-71
2023/07/10 12:47:33;;;;;;;6.30;3.38;;;;;;;;;;5018722;28;20472;-74
2023/07/10 12:50:22;;;;;;;5.43;3.25;;;;;;;;;;5025898;28;20048;-71
2023/07/10 12:52:50;;;;;;;6.47;4.05;;;;;;;;;;5021583;28;20137;-72
2023/07/10 12:55:18;;;;;;;5.82;4.15;;;;;;;;;;5013692;28;20038;-73
2023/07/10 12:57:49;;;;;;;7.28;4.65;;;;;;;;;;5013344;28;20053;-73
2023/07/10 13:00:16;;;;;;;6.15;4.15;;;;;;;;;;5030662;28;20050;-75
2023/07/10 13:02:48;;;;;;;8.95;3.50;;;;;;;;;;5032955;28;20403;-72
2023/07/10 13:05:24;;;;;;;7.13;3.92;;;;;;;;;;5033361;28;20107;-73
2023/07/10 13:07:53;;;;;;;7.72;3.60;;;;;;;;;;5033047;28;20491;-72
2023/07/10 13:10:20;;;;;;;5.30;3.40;;;;;;;;;;5033036;28;20124;-72
2023/07/10 13:12:49;;;;;;;6.68;3.53;;;;;;;;;;5032909;28;20044;-72
2023/07/10 13:15:17;;;;;;;5.53;3.13;;;;;;;;;;5033124;28;20041;-73
2023/07/10 13:17:49;;;;;;;8.75;3.28;;;;;;;;;;5032765;28;20041;-76
2023/07/10 13:20:21;;;;;;;5.68;3.20;;;;;;;;;;5016501;28;20097;-73
2023/07/10 13:22:50;;;;;;;3.83;3.28;;;;;;;;;;5012046;28;20484;-72
2023/07/10 13:25:18;;;;;;;5.43;3.70;;;;;;;;;;5012968;28;20403;-73
2023/07/10 13:27:45;;;;;;;4.20;3.30;;;;;;;;;;5012456;28;20096;-72
2023/07/10 13:30:17;;;;;;;5.13;3.22;;;;;;;;;;5012985;28;20487;-73
2023/07/10 13:32:45;;;;;;;6.75;3.60;;;;;;;;;;5012844;28;20129;-72
2023/07/10 13:35:13;;;;;;;4.95;3.35;;;;;;;;;;5012917;28;20042;-72
2023/07/10 13:37:41;;;;;;;5.47;3.15;;;;;;;;;;5012816;28;20056;-74
2023/07/10 13:40:21;;;;;;;6.05;3.20;;;;;;;;;;5012923;28;20042;-76
2023/07/10 13:42:48;;;;;;;9.35;3.90;;;;;;;;;;5012775;28;20049;-71
2023/07/10 13:45:16;;;;;;;7.65;3.50;;;;;;;;;;5026301;28;20057;-73
2023/07/10 13:47:43;;;;;;;4.15;3.20;;;;;;;;;;5032610;28;20125;-71
2023/07/10 13:50:15;;;;;;;6.38;3.20;;;;;;;;;;5018893;28;20381;-71
2023/07/10 13:52:44;;;;;;;4.70;3.15;;;;;;;;;;5011151;28;20096;-74
2023/07/10 13:55:13;;;;;;;5.55;3.85;;;;;;;;;;5031779;28;20514;-73
2023/07/10 13:57:40;;;;;;;4.20;2.90;;;;;;;;;;5032162;28;20136;-73
2023/07/10 14:00:11;;;;;;;3.60;2.95;;;;;;;;;;5032230;28;20040;-73
2023/07/10 14:02:39;;;;;;;5.13;3.13;;;;;;;;;;5014715;28;20073;-74
2023/07/10 14:05:08;;;;;;;7.40;3.53;;;;;;;;;;5012462;28;20088;-73
2023/07/10 14:07:36;;;;;;;3.97;3.15;;;;;;;;;;5012465;28;20045;-72
2023/07/10 14:10:04;;;;;;;5.28;3.20;;;;;;;;;;5012636;28;20042;-72
2023/07/10 14:12:33;;;;;;;6.75;2.83;;;;;;;;;;5012455;28;20053;-77
2023/07/10 14:15:03;;;;;;;7.55;3.13;;;;;;;;;;5012612;28;20461;-79
2023/07/10 14:17:31;;;;;;;5.25;3.13;;;;;;;;;;5012378;28;20511;-79
2023/07/10 14:20:00;;;;;;;4.97;3.58;;;;;;;;;;5025233;28;20128;-81
2023/07/10 14:22:28;;;;;;;5.43;3.30;;;;;;;;;;5030632;28;20100;-79
2023/07/10 14:24:55;;;;;;;4.93;3.45;;;;;;;;;;5012327;28;20095;-78
2023/07/10 14:27:25;;;;;;;3.90;3.08;;;;;;;;;;5012488;28;20045;-79
2023/07/10 14:29:53;;;;;;;5.75;3.20;;;;;;;;;;5020086;28;20776;-76
2023/07/10 14:32:22;;;;;;;4.90;3.08;;;;;;;;;;5018507;28;20050;-80
2023/07/10 14:34:49;;;;;;;4.32;3.25;;;;;;;;;;5012723;28;20046;-77
2023/07/10 14:37:18;;;;;;;5.00;3.50;;;;;;;;;;5009577;28;20508;-79
2023/07/10 14:39:46;;;;;;;5.72;2.97;;;;;;;;;;5013116;28;20452;-76
2023/07/10 14:42:25;;;;;;;4.22;3.00;;;;;;;;;;5015491;28;20500;-79
2023/07/10 14:44:52;;;;;;;5.70;3.20;;;;;;;;;;5015718;28;20046;-79
2023/07/10 14:47:32;;;;;;;5.60;3.22;;;;;;;;;;5016099;28;20061;-79
2023/07/10 14:50:00;;;;;;;5.95;3.28;;;;;;;;;;5016070;28;20551;-77
2023/07/10 14:52:29;;;;;;;7.85;3.40;;;;;;;;;;5015923;28;20084;-80
2023/07/10 14:54:57;;;;;;;5.03;3.42;;;;;;;;;;5015939;28;20046;-77
2023/07/10 14:57:25;;;;;;;5.70;3.45;;;;;;;;;;5015861;28;20475;-80